createdAt,value
2022-10-13T00:00:48.964Z,80.05
2022-10-13T00:03:16.559Z,80.55
2022-10-13T00:05:48.434Z,80.69
2022-10-13T00:08:19.768Z,80.49
2022-10-13T00:10:47.985Z,80.40
2022-10-13T00:13:15.659Z,79.70
2022-10-13T00:15:45.215Z,79.26
2022-10-13T00:18:12.155Z,79.79
2022-10-13T00:20:49.743Z,79.17
2022-10-13T00:23:17.066Z,79.48
2022-10-13T00:25:45.881Z,80.31
2022-10-13T00:28:13.526Z,79.04
2022-10-13T00:30:40.868Z,79.72
2022-10-13T00:33:08.859Z,79.40
2022-10-13T00:35:41.217Z,80.04
2022-10-13T00:38:07.964Z,79.42
2022-10-13T00:40:34.468Z,80.08
2022-10-13T00:43:00.977Z,79.63
2022-10-13T00:45:32.044Z,80.13
2022-10-13T00:48:01.771Z,79.54
2022-10-13T00:50:37.603Z,79.84
2022-10-13T00:53:05.848Z,80.63
2022-10-13T00:55:35.005Z,80.65
2022-10-13T00:58:05.672Z,80.75
2022-10-13T01:00:33.868Z,81.04
2022-10-13T01:03:04.034Z,81.55
2022-10-13T01:05:31.156Z,81.54
2022-10-13T01:07:59.457Z,81.84
2022-10-13T01:10:51.958Z,82.14
2022-10-13T01:13:21.367Z,82.03
2022-10-13T01:15:58.380Z,82.61
2022-10-13T01:18:45.119Z,82.77
2022-10-13T01:21:17.704Z,83.11
2022-10-13T01:24:15.352Z,83.28
2022-10-13T01:27:16.165Z,83.24
2022-10-13T01:30:04.914Z,83.09
2022-10-13T01:32:58.335Z,82.23
2022-10-13T01:35:41.668Z,82.59
2022-10-13T01:38:27.886Z,82.50
2022-10-13T01:41:16.330Z,82.70
2022-10-13T01:43:56.284Z,83.51
2022-10-13T01:46:28.701Z,83.69
2022-10-13T01:48:58.196Z,83.89
2022-10-13T01:51:27.019Z,83.21
2022-10-13T01:53:53.745Z,84.20
2022-10-13T01:56:20.535Z,83.65
2022-10-13T01:58:49.874Z,83.49
2022-10-13T02:01:47.591Z,84.14
2022-10-13T02:04:25.968Z,83.87
2022-10-13T02:07:11.362Z,83.94
2022-10-13T02:10:09.533Z,83.47
2022-10-13T02:12:57.946Z,84.16
2022-10-13T02:15:33.010Z,83.06
2022-10-13T02:18:02.022Z,83.27
2022-10-13T02:20:28.582Z,83.24
2022-10-13T02:23:01.245Z,82.76
2022-10-13T02:25:28.807Z,82.48
2022-10-13T02:27:57.871Z,82.16
2022-10-13T02:30:28.664Z,82.69
2022-10-13T02:32:55.288Z,82.64
2022-10-13T02:35:21.949Z,82.28
2022-10-13T02:37:48.447Z,81.98
2022-10-13T02:40:15.123Z,82.33
2022-10-13T02:42:41.669Z,82.05
2022-10-13T02:45:09.003Z,82.12
2022-10-13T02:47:35.577Z,82.27
2022-10-13T02:50:02.446Z,82.34
2022-10-13T02:52:28.999Z,81.49
2022-10-13T02:54:55.519Z,81.90
2022-10-13T02:57:22.584Z,81.88
2022-10-13T02:59:49.157Z,81.91
2022-10-13T03:02:15.916Z,81.70
2022-10-13T03:04:42.405Z,81.53
2022-10-13T03:07:08.947Z,82.04
2022-10-13T03:09:36.076Z,81.50
2022-10-13T03:12:02.617Z,81.58
2022-10-13T03:14:29.104Z,81.53
2022-10-13T03:16:55.574Z,81.33
2022-10-13T03:19:22.141Z,80.95
2022-10-13T03:21:49.467Z,81.49
2022-10-13T03:24:15.985Z,80.87
2022-10-13T03:26:42.474Z,80.96
2022-10-13T03:29:15.906Z,80.87
2022-10-13T03:31:42.584Z,81.15
2022-10-13T03:34:10.441Z,81.54
2022-10-13T03:36:36.959Z,81.01
2022-10-13T03:39:03.867Z,80.96
2022-10-13T03:41:30.397Z,80.99
2022-10-13T03:43:56.908Z,80.75
2022-10-13T03:46:26.484Z,80.56
2022-10-13T03:48:53.034Z,80.10
2022-10-13T03:51:20.881Z,80.81
2022-10-13T03:53:48.873Z,80.62
2022-10-13T03:56:18.595Z,79.97
2022-10-13T03:58:45.165Z,80.22
2022-10-13T04:01:13.791Z,80.25
2022-10-13T04:03:40.583Z,79.86
2022-10-13T04:06:07.207Z,79.71
2022-10-13T04:08:34.363Z,79.74
2022-10-13T04:11:03.445Z,80.35
2022-10-13T04:13:30.182Z,79.86
2022-10-13T04:15:56.663Z,79.91
2022-10-13T04:18:23.191Z,79.79
2022-10-13T04:20:50.170Z,79.88
2022-10-13T04:23:16.649Z,79.70
2022-10-13T04:25:43.163Z,79.47
2022-10-13T04:28:11.394Z,79.75
2022-10-13T04:30:38.077Z,79.42
2022-10-13T04:33:05.316Z,79.57
2022-10-13T04:35:32.109Z,79.20
2022-10-13T04:37:58.708Z,80.19
2022-10-13T04:40:26.379Z,79.86
2022-10-13T04:42:53.193Z,79.59
2022-10-13T04:45:19.835Z,80.20
2022-10-13T04:47:46.382Z,80.08
2022-10-13T04:50:12.943Z,79.84
2022-10-13T04:52:39.479Z,79.80
2022-10-13T04:55:06.573Z,79.91
2022-10-13T04:57:33.333Z,79.86
2022-10-13T04:59:59.892Z,80.35
2022-10-13T05:02:26.458Z,79.81
2022-10-13T05:04:52.953Z,80.21
2022-10-13T05:07:19.471Z,79.86
2022-10-13T05:09:46.425Z,79.77
2022-10-13T05:12:13.059Z,80.04
2022-10-13T05:14:39.552Z,80.08
2022-10-13T05:17:06.041Z,80.27
2022-10-13T05:19:32.743Z,80.69
2022-10-13T05:21:59.283Z,80.79
2022-10-13T05:24:36.540Z,80.38
2022-10-13T05:27:05.598Z,80.46
2022-10-13T05:29:32.354Z,80.42
2022-10-13T05:31:58.849Z,81.30
2022-10-13T05:34:25.490Z,81.70
2022-10-13T05:36:52.233Z,81.68
2022-10-13T05:39:19.083Z,81.51
2022-10-13T05:41:45.663Z,80.76
2022-10-13T05:44:12.167Z,80.70
2022-10-13T05:46:38.674Z,80.38
2022-10-13T05:49:05.228Z,80.13
2022-10-13T05:51:38.974Z,80.41
2022-10-13T05:54:30.907Z,79.51
2022-10-13T05:57:05.731Z,79.92
2022-10-13T05:59:39.700Z,80.06
2022-10-13T06:02:09.581Z,79.91
2022-10-13T06:04:39.780Z,79.74
2022-10-13T06:07:08.058Z,80.08
2022-10-13T06:09:37.993Z,80.31
2022-10-13T06:12:05.877Z,80.19
2022-10-13T06:14:32.405Z,80.72
2022-10-13T06:16:59.088Z,80.45
2022-10-13T06:19:25.816Z,81.19
2022-10-13T06:21:52.382Z,81.09
2022-10-13T06:24:19.038Z,80.89
2022-10-13T06:26:46.171Z,80.33
2022-10-13T06:29:12.732Z,80.14
2022-10-13T06:31:39.263Z,80.43
2022-10-13T06:34:05.925Z,80.73
2022-10-13T06:36:32.409Z,81.04
2022-10-13T06:38:58.914Z,80.42
2022-10-13T06:41:25.513Z,80.01
2022-10-13T06:43:52.126Z,80.62
2022-10-13T06:46:18.794Z,81.00
2022-10-13T06:48:45.436Z,80.45
2022-10-13T06:51:12.737Z,79.71
2022-10-13T06:53:39.478Z,79.76
2022-10-13T06:56:07.238Z,79.07
2022-10-13T06:58:37.816Z,78.48
2022-10-13T07:01:05.465Z,78.27
2022-10-13T07:03:32.255Z,79.06
2022-10-13T07:06:03.874Z,78.53
2022-10-13T07:08:31.519Z,79.11
2022-10-13T07:10:58.649Z,78.45
2022-10-13T07:13:25.341Z,78.09
2022-10-13T07:15:51.904Z,77.65
2022-10-13T07:18:18.454Z,77.33
2022-10-13T07:20:44.930Z,77.39
2022-10-13T07:23:11.428Z,77.74
2022-10-13T07:25:38.010Z,77.85
2022-10-13T07:28:04.564Z,76.56
2022-10-13T07:30:31.101Z,77.11
2022-10-13T07:32:57.588Z,77.24
2022-10-13T07:35:29.659Z,76.72
2022-10-13T07:37:57.519Z,76.87
2022-10-13T07:40:24.371Z,76.29
2022-10-13T07:42:51.078Z,76.35
2022-10-13T07:45:17.828Z,75.01
2022-10-13T07:47:44.368Z,75.46
2022-10-13T07:50:11.785Z,75.13
2022-10-13T07:52:38.312Z,74.73
2022-10-13T07:55:05.599Z,73.69
2022-10-13T07:57:32.574Z,73.95
2022-10-13T07:59:59.085Z,74.23
2022-10-13T08:02:26.316Z,74.10
2022-10-13T08:04:52.916Z,73.81
2022-10-13T08:07:19.675Z,73.88
2022-10-13T08:09:46.372Z,73.50
2022-10-13T08:12:12.949Z,72.84
2022-10-13T08:14:39.548Z,72.73
2022-10-13T08:17:06.205Z,71.95
2022-10-13T08:19:32.739Z,72.46
2022-10-13T08:22:00.113Z,72.34
2022-10-13T08:24:27.597Z,71.91
2022-10-13T08:26:54.360Z,71.29
2022-10-13T08:29:22.576Z,70.56
2022-10-13T08:31:51.227Z,70.20
2022-10-13T08:34:17.965Z,69.60
2022-10-13T08:36:44.566Z,69.68
2022-10-13T08:39:11.100Z,69.56
2022-10-13T08:41:41.424Z,69.73
2022-10-13T08:47:46.842Z,68.36
2022-10-13T08:50:21.508Z,68.77
2022-10-13T08:52:53.681Z,68.34
2022-10-13T08:55:35.154Z,68.16
2022-10-13T08:58:06.454Z,68.72
2022-10-13T09:00:32.977Z,69.13
2022-10-13T09:03:19.924Z,68.18
2022-10-13T09:05:57.082Z,67.96
2022-10-13T09:08:26.979Z,67.42
2022-10-13T09:10:53.914Z,67.88
2022-10-13T09:13:20.685Z,67.82
2022-10-13T09:15:53.049Z,67.61
2022-10-13T09:18:28.895Z,66.36
2022-10-13T09:21:23.488Z,65.63
2022-10-13T09:23:54.196Z,66.46
2022-10-13T09:26:25.411Z,66.30
2022-10-13T09:28:52.475Z,66.14
2022-10-13T09:31:25.262Z,67.33
2022-10-13T09:34:11.995Z,66.40
2022-10-13T09:36:38.621Z,64.96
2022-10-13T09:39:08.848Z,66.09
2022-10-13T09:41:36.249Z,66.21
2022-10-13T09:44:12.596Z,65.65
2022-10-13T09:46:52.886Z,65.28
2022-10-13T09:49:41.460Z,65.54
2022-10-13T09:52:18.182Z,64.48
2022-10-13T09:55:03.208Z,64.20
2022-10-13T09:57:45.850Z,64.02
2022-10-13T10:00:23.941Z,63.86
2022-10-13T10:03:12.318Z,63.41
2022-10-13T10:05:50.710Z,64.13
2022-10-13T10:09:02.079Z,63.19
2022-10-13T10:11:33.682Z,63.09
2022-10-13T10:14:26.350Z,62.83
2022-10-13T10:17:11.280Z,62.32
2022-10-13T10:19:52.970Z,62.95
2022-10-13T10:22:34.815Z,63.38
2022-10-13T10:25:19.680Z,62.63
2022-10-13T10:28:03.988Z,62.16
2022-10-13T10:30:34.979Z,61.71
2022-10-13T10:33:12.130Z,60.47
2022-10-13T10:35:38.955Z,60.63
2022-10-13T10:38:39.152Z,60.15
2022-10-13T10:41:34.741Z,59.08
2022-10-13T10:44:08.725Z,60.35
2022-10-13T10:46:40.487Z,61.55
2022-10-13T10:49:31.063Z,61.04
2022-10-13T10:52:00.070Z,61.77
2022-10-13T10:54:40.830Z,60.77
2022-10-13T10:57:20.307Z,62.39
2022-10-13T10:59:51.467Z,63.50
2022-10-13T11:02:24.613Z,62.35
2022-10-13T11:04:55.443Z,62.15
2022-10-13T11:07:24.736Z,62.04
2022-10-13T11:09:54.963Z,60.60
2022-10-13T11:12:21.877Z,60.60
2022-10-13T11:15:02.323Z,60.53
2022-10-13T11:17:34.144Z,60.16
2022-10-13T11:20:00.954Z,60.55
2022-10-13T11:22:31.139Z,60.03
2022-10-13T11:25:04.464Z,60.28
2022-10-13T11:27:33.971Z,59.34
2022-10-13T11:30:01.454Z,59.84
2022-10-13T11:32:28.237Z,60.82
2022-10-13T11:35:01.019Z,60.19
2022-10-13T11:38:05.860Z,60.19
2022-10-13T11:40:44.958Z,60.25
2022-10-13T11:43:42.270Z,59.77
2022-10-13T11:46:14.654Z,59.79
2022-10-13T11:49:18.549Z,59.40
2022-10-13T11:52:12.373Z,59.40
2022-10-13T11:54:41.521Z,58.70
2022-10-13T11:57:20.024Z,60.00
2022-10-13T11:59:49.982Z,59.63
2022-10-13T12:02:19.147Z,59.88
2022-10-13T12:05:04.303Z,59.79
2022-10-13T12:07:37.123Z,59.79
2022-10-13T12:10:07.450Z,60.08
2022-10-13T12:12:34.497Z,60.01
2022-10-13T12:15:04.376Z,59.87
2022-10-13T12:17:40.982Z,60.35
2022-10-13T12:20:29.639Z,60.22
2022-10-13T12:22:57.193Z,61.20
2022-10-13T12:25:30.033Z,61.46
2022-10-13T12:27:59.777Z,60.84
2022-10-13T12:30:36.997Z,60.46
2022-10-13T12:33:18.061Z,60.96
2022-10-13T12:35:44.770Z,60.38
2022-10-13T12:38:21.871Z,60.15
2022-10-13T12:40:50.065Z,60.15
2022-10-13T12:43:25.269Z,60.33
2022-10-13T12:45:52.125Z,60.32
2022-10-13T12:48:33.466Z,60.28
2022-10-13T12:51:19.946Z,60.17
2022-10-13T12:53:48.017Z,60.08
2022-10-13T12:56:27.636Z,59.53
2022-10-13T12:58:55.217Z,59.88
2022-10-13T13:01:28.350Z,59.20
2022-10-13T13:03:58.296Z,59.56
2022-10-13T13:06:36.935Z,58.32
2022-10-13T13:09:12.588Z,59.34
2022-10-13T13:11:39.427Z,59.14
2022-10-13T13:14:36.486Z,59.49
2022-10-13T13:20:24.947Z,60.32
2022-10-13T13:22:51.594Z,60.02
2022-10-13T13:25:18.339Z,59.93
2022-10-13T13:27:45.308Z,60.01
2022-10-13T13:30:13.657Z,60.07
2022-10-13T13:32:40.618Z,60.00
2022-10-13T13:35:08.018Z,60.48
2022-10-13T13:37:37.509Z,60.88
2022-10-13T13:40:05.930Z,60.76
2022-10-13T13:42:32.872Z,60.51
2022-10-13T13:44:59.426Z,60.41
2022-10-13T13:47:28.125Z,60.64
2022-10-13T13:49:56.648Z,60.55
2022-10-13T13:52:25.272Z,60.93
2022-10-13T13:54:52.645Z,60.82
2022-10-13T13:57:20.567Z,60.62
2022-10-13T13:59:47.636Z,61.19
2022-10-13T14:02:17.844Z,60.66
2022-10-13T14:04:44.841Z,61.25
2022-10-13T14:07:11.891Z,61.35
2022-10-13T14:09:39.103Z,61.77
2022-10-13T14:12:05.833Z,62.02
2022-10-13T14:14:32.602Z,62.76
2022-10-13T14:17:00.685Z,62.63
2022-10-13T14:19:27.625Z,62.67
2022-10-13T14:21:54.154Z,62.39
2022-10-13T14:24:21.122Z,62.65
2022-10-13T14:26:48.706Z,62.63
2022-10-13T14:29:15.977Z,62.34
2022-10-13T14:31:42.686Z,62.37
2022-10-13T14:34:09.840Z,63.04
2022-10-13T14:36:36.384Z,63.32
2022-10-13T14:39:03.056Z,62.90
2022-10-13T14:41:29.616Z,63.02
2022-10-13T14:43:57.237Z,63.35
2022-10-13T14:46:26.052Z,63.30
2022-10-13T14:48:52.765Z,63.91
2022-10-13T14:51:19.282Z,63.85
2022-10-13T14:53:45.985Z,64.27
2022-10-13T14:56:29.641Z,64.39
2022-10-13T14:59:01.034Z,64.09
2022-10-13T15:01:28.046Z,64.46
2022-10-13T15:03:55.221Z,64.87
2022-10-13T15:06:23.800Z,64.96
2022-10-13T15:08:51.081Z,65.09
2022-10-13T15:11:19.090Z,65.50
2022-10-13T15:13:45.968Z,65.64
2022-10-13T15:16:17.079Z,65.39
2022-10-13T15:18:44.273Z,65.51
2022-10-13T15:21:11.458Z,65.70
2022-10-13T15:23:38.012Z,66.37
2022-10-13T15:26:05.111Z,66.98
2022-10-13T15:28:40.473Z,67.93
2022-10-13T15:31:07.480Z,68.13
2022-10-13T15:33:34.612Z,68.14
2022-10-13T15:36:01.342Z,68.67
2022-10-13T15:38:28.348Z,68.74
2022-10-13T15:41:03.454Z,69.65
2022-10-13T15:43:31.314Z,69.53
2022-10-13T15:46:04.283Z,71.00
2022-10-13T15:48:31.907Z,71.01
2022-10-13T15:50:58.486Z,72.03
2022-10-13T15:53:25.476Z,72.21
2022-10-13T15:55:52.233Z,72.75
2022-10-13T15:58:19.237Z,72.63
2022-10-13T16:00:46.030Z,72.73
2022-10-13T16:03:15.629Z,73.09
2022-10-13T16:05:43.638Z,72.40
2022-10-13T16:08:10.887Z,72.80
2022-10-13T16:10:44.001Z,73.43
2022-10-13T16:13:14.964Z,73.59
2022-10-13T16:15:42.943Z,74.44
2022-10-13T16:18:09.607Z,73.91
2022-10-13T16:20:38.663Z,74.57
2022-10-13T16:23:05.481Z,74.83
2022-10-13T16:25:32.135Z,75.18
2022-10-13T16:27:59.492Z,74.87
2022-10-13T16:30:26.820Z,76.18
2022-10-13T16:32:55.082Z,76.76
2022-10-13T16:35:22.015Z,76.49
2022-10-13T16:37:48.577Z,77.85
2022-10-13T16:40:15.632Z,76.85
2022-10-13T16:42:43.370Z,77.40
2022-10-13T16:45:10.172Z,77.70
2022-10-13T16:47:36.759Z,76.54
2022-10-13T16:50:09.245Z,77.27
2022-10-13T16:52:37.123Z,76.68
2022-10-13T16:55:05.397Z,77.12
2022-10-13T16:57:32.749Z,77.20
2022-10-13T16:59:59.318Z,77.34
2022-10-13T17:02:25.903Z,76.94
2022-10-13T17:04:52.522Z,77.61
2022-10-13T17:07:19.244Z,77.83
2022-10-13T17:09:46.010Z,78.49
2022-10-13T17:12:12.593Z,78.43
2022-10-13T17:14:40.271Z,79.15
2022-10-13T17:17:06.955Z,79.75
2022-10-13T17:19:33.548Z,79.39
2022-10-13T17:22:00.199Z,80.74
2022-10-13T17:24:26.981Z,79.18
2022-10-13T17:26:53.505Z,79.14
2022-10-13T17:29:20.049Z,80.37
2022-10-13T17:31:46.762Z,80.14
2022-10-13T17:34:13.316Z,79.99
2022-10-13T17:36:39.839Z,80.65
2022-10-13T17:39:08.517Z,80.52
2022-10-13T17:41:35.437Z,80.59
2022-10-13T17:44:02.163Z,80.62
2022-10-13T17:46:36.717Z,80.74
2022-10-13T17:49:04.551Z,81.62
2022-10-13T17:51:31.184Z,81.00
2022-10-13T17:53:59.727Z,80.80
2022-10-13T17:56:27.185Z,81.08
2022-10-13T17:58:54.069Z,81.48
2022-10-13T18:01:25.761Z,81.54
2022-10-13T18:03:56.066Z,82.65
2022-10-13T18:06:23.003Z,82.63
2022-10-13T18:08:52.767Z,82.85
2022-10-13T18:11:21.232Z,82.76
2022-10-13T18:13:47.982Z,82.78
2022-10-13T18:16:20.146Z,83.15
2022-10-13T18:18:47.259Z,83.14
2022-10-13T18:21:16.414Z,83.63
2022-10-13T18:23:43.171Z,83.32
2022-10-13T18:26:12.504Z,82.74
2022-10-13T18:28:40.668Z,82.78
2022-10-13T18:31:18.930Z,83.89
2022-10-13T18:33:46.683Z,83.40
2022-10-13T18:36:13.815Z,83.11
2022-10-13T18:38:40.385Z,82.89
2022-10-13T18:41:06.947Z,82.99
2022-10-13T18:43:33.484Z,83.27
2022-10-13T18:46:01.527Z,82.91
2022-10-13T18:48:28.464Z,82.69
2022-10-13T18:50:55.046Z,82.93
2022-10-13T18:53:21.808Z,82.98
2022-10-13T18:55:48.424Z,83.29
2022-10-13T18:58:14.975Z,84.23
2022-10-13T19:00:41.588Z,84.01
2022-10-13T19:03:08.332Z,84.26
2022-10-13T19:05:39.283Z,84.76
2022-10-13T19:08:09.366Z,84.76
2022-10-13T19:10:36.946Z,84.66
2022-10-13T19:13:03.801Z,84.62
2022-10-13T19:15:30.334Z,84.09
2022-10-13T19:17:56.819Z,84.96
2022-10-13T19:20:23.467Z,84.62
2022-10-13T19:22:49.991Z,85.00
2022-10-13T19:25:16.695Z,84.92
2022-10-13T19:27:43.213Z,85.12
2022-10-13T19:30:10.638Z,85.23
2022-10-13T19:32:39.979Z,84.93
2022-10-13T19:35:06.658Z,84.72
2022-10-13T19:37:33.223Z,84.61
2022-10-13T19:39:59.965Z,84.86
2022-10-13T19:42:26.518Z,85.36
2022-10-13T19:44:53.032Z,85.95
2022-10-13T19:47:19.877Z,85.72
2022-10-13T19:49:47.281Z,86.10
2022-10-13T19:52:13.774Z,85.42
2022-10-13T19:54:40.251Z,85.59
2022-10-13T19:57:06.935Z,85.60
2022-10-13T19:59:33.415Z,85.88
2022-10-13T20:01:59.941Z,85.29
2022-10-13T20:04:26.546Z,85.26
2022-10-13T20:06:53.052Z,85.46
2022-10-13T20:09:20.440Z,85.80
2022-10-13T20:11:49.607Z,85.53
2022-10-13T20:14:17.633Z,86.11
2022-10-13T20:16:44.735Z,86.07
2022-10-13T20:19:13.956Z,85.84
2022-10-13T20:21:40.540Z,85.39
2022-10-13T20:24:07.180Z,85.51
2022-10-13T20:26:33.876Z,85.45
2022-10-13T20:29:00.959Z,85.35
2022-10-13T20:31:27.557Z,84.89
2022-10-13T20:33:58.495Z,84.54
2022-10-13T20:36:28.290Z,84.40
2022-10-13T20:38:55.244Z,84.91
2022-10-13T20:41:24.649Z,85.12
2022-10-13T20:43:52.642Z,85.60
2022-10-13T20:46:20.393Z,86.14
2022-10-13T20:51:35.199Z,85.09
2022-10-13T20:54:01.720Z,85.55
2022-10-13T20:56:28.291Z,85.60
2022-10-13T20:58:54.790Z,85.55
2022-10-13T21:01:23.018Z,85.73
2022-10-13T21:03:53.216Z,86.20
2022-10-13T21:06:20.194Z,85.67
2022-10-13T21:08:47.482Z,85.50
2022-10-13T21:11:16.255Z,85.92
2022-10-13T21:13:43.932Z,85.46
2022-10-13T21:16:16.560Z,85.32
2022-10-13T21:18:48.950Z,85.27
2022-10-13T21:21:18.855Z,84.69
2022-10-13T21:23:46.131Z,85.24
2022-10-13T21:26:14.375Z,85.29
2022-10-13T21:28:44.380Z,85.68
2022-10-13T21:31:12.869Z,86.01
2022-10-13T21:33:41.289Z,85.58
2022-10-13T21:36:09.245Z,85.65
2022-10-13T21:38:36.519Z,86.14
2022-10-13T21:41:07.788Z,86.23
2022-10-13T21:43:34.854Z,86.95
2022-10-13T21:46:11.520Z,86.84
2022-10-13T21:48:38.303Z,86.66
2022-10-13T21:51:29.689Z,87.64
2022-10-13T21:53:58.514Z,86.52
2022-10-13T21:56:26.295Z,85.94
2022-10-13T21:58:53.868Z,85.95
2022-10-13T22:01:21.003Z,86.21
2022-10-13T22:03:48.294Z,86.11
2022-10-13T22:06:19.308Z,85.66
2022-10-13T22:08:48.786Z,85.65
2022-10-13T22:11:16.804Z,85.48
2022-10-13T22:13:43.392Z,84.91
2022-10-13T22:16:21.543Z,84.98
2022-10-13T22:18:50.796Z,84.77
2022-10-13T22:21:20.744Z,84.94
2022-10-13T22:23:47.622Z,84.86
2022-10-13T22:26:16.438Z,84.97
2022-10-13T22:28:43.919Z,85.20
2022-10-13T22:31:12.880Z,85.40
2022-10-13T22:33:41.049Z,85.27
2022-10-13T22:36:16.347Z,86.48
2022-10-13T22:38:43.887Z,86.38
2022-10-13T22:41:10.527Z,86.68
2022-10-13T22:43:37.607Z,86.03
2022-10-13T22:46:05.007Z,85.74
2022-10-13T22:48:35.792Z,85.88
2022-10-13T22:51:06.267Z,85.36
2022-10-13T22:53:33.563Z,85.55
2022-10-13T22:56:00.767Z,85.26
2022-10-13T22:58:27.287Z,85.21
2022-10-13T23:00:53.845Z,85.03
2022-10-13T23:03:20.425Z,85.20
2022-10-13T23:05:48.459Z,85.29
2022-10-13T23:08:14.975Z,85.01
2022-10-13T23:10:41.535Z,85.51
2022-10-13T23:13:08.064Z,85.55
2022-10-13T23:15:34.611Z,85.41
2022-10-13T23:18:01.150Z,85.65
2022-10-13T23:20:27.711Z,85.40
2022-10-13T23:22:54.204Z,85.90
2022-10-13T23:25:20.765Z,85.47
2022-10-13T23:27:47.302Z,85.08
2022-10-13T23:30:14.009Z,85.50
2022-10-13T23:32:40.577Z,85.60
2022-10-13T23:35:07.341Z,86.17
2022-10-13T23:37:33.961Z,86.02
2022-10-13T23:40:00.503Z,85.47
2022-10-13T23:42:27.005Z,85.88
2022-10-13T23:44:53.534Z,86.24
2022-10-13T23:47:20.410Z,86.12
2022-10-13T23:49:47.193Z,86.15
2022-10-13T23:52:13.714Z,86.19
2022-10-13T23:54:40.215Z,87.06
2022-10-13T23:57:06.740Z,86.41
2022-10-13T23:59:33.475Z,85.55
